Time;durP1;ratioP1;P1;durP2;ratioP2;P2;SDS_P1;SDS_P2;PMS_P1;PMS_P2;Temp;Humidity;BMP_temperature;BMP_pressure;BME280_temperature;BME280_humidity;BME280_pressure;Samples;Min_cycle;Max_cycle;Signal;HPM_P1;HPM_P2
2023/08/30 00:09:35;;;;;;;6.32;4.38;;;;;;;16.60;91.03;100858.00;20418867;28;20050;-61
2023/08/30 00:19:59;;;;;;;5.45;3.83;;;;;;;16.59;89.62;100851.06;20405563;28;20448;-61
2023/08/30 00:30:21;;;;;;;4.03;3.22;;;;;;;16.68;88.97;100847.13;20427578;28;20043;-61
2023/08/30 00:40:42;;;;;;;4.68;2.80;;;;;;;16.70;88.80;100834.81;20412762;29;20048;-61
2023/08/30 00:51:04;;;;;;;3.65;3.30;;;;;;;16.67;87.96;100833.22;20413392;28;20146;-62
2023/08/30 01:01:26;;;;;;;3.90;3.00;;;;;;;16.66;88.74;100834.16;20421955;28;20044;-62
2023/08/30 01:12:04;;;;;;;3.80;3.10;;;;;;;16.67;88.04;100824.53;20408716;28;20040;-62
2023/08/30 01:22:42;;;;;;;3.40;3.10;;;;;;;16.56;88.92;100822.50;20418257;28;20487;-62
2023/08/30 01:33:04;;;;;;;4.30;3.28;;;;;;;16.48;88.84;100810.78;20407700;28;20043;-62
2023/08/30 01:43:30;;;;;;;4.13;3.72;;;;;;;16.37;88.82;100821.78;20387764;29;20075;-61
2023/08/30 01:53:53;;;;;;;5.78;3.70;;;;;;;16.23;89.80;100813.84;20417040;29;20044;-62
2023/08/30 02:04:15;;;;;;;4.20;3.80;;;;;;;16.17;90.26;100821.19;20418284;28;20040;-62
2023/08/30 02:14:39;;;;;;;4.68;4.00;;;;;;;16.11;89.90;100827.56;20406928;29;20156;-62
2023/08/30 02:25:04;;;;;;;7.10;4.57;;;;;;;16.05;90.19;100825.25;20425773;29;20051;-61
2023/08/30 02:35:27;;;;;;;5.80;5.05;;;;;;;15.98;90.70;100823.91;20418621;28;20062;-62
2023/08/30 02:45:48;;;;;;;8.48;5.10;;;;;;;15.90;91.36;100819.06;20416449;29;20160;-61
2023/08/30 02:56:11;;;;;;;6.75;5.72;;;;;;;15.82;91.36;100817.81;20416432;28;20055;-61
2023/08/30 03:06:34;;;;;;;6.95;6.18;;;;;;;15.67;91.80;100808.16;20421792;28;20480;-61
2023/08/30 03:16:55;;;;;;;8.60;6.13;;;;;;;15.60;92.17;100812.00;20429996;28;20051;-61
2023/08/30 03:27:19;;;;;;;11.63;6.90;;;;;;;15.56;92.31;100805.25;20426324;28;20437;-62
2023/08/30 03:37:41;;;;;;;9.75;7.05;;;;;;;15.55;92.71;100807.00;20413191;29;20505;-61
2023/08/30 03:48:04;;;;;;;9.27;7.32;;;;;;;15.43;92.63;100798.94;20407473;29;20051;-62
2023/08/30 03:58:25;;;;;;;12.07;8.45;;;;;;;15.38;92.98;100790.50;20411440;28;20541;-61
2023/08/30 04:08:47;;;;;;;10.90;8.27;;;;;;;15.23;93.16;100778.22;20411601;29;20601;-61
2023/08/30 04:19:08;;;;;;;12.23;8.20;;;;;;;15.14;93.22;100748.25;20413065;28;20039;-61
2023/08/30 04:29:30;;;;;;;13.98;8.70;;;;;;;15.16;93.44;100754.22;20422276;28;20082;-61
2023/08/30 04:39:52;;;;;;;11.98;8.63;;;;;;;15.13;93.60;100740.50;20410538;29;20737;-61
2023/08/30 04:50:13;;;;;;;12.57;8.60;;;;;;;15.11;93.82;100746.63;20411857;29;20354;-61
2023/08/30 05:00:36;;;;;;;14.10;8.82;;;;;;;15.03;93.49;100733.13;20407361;28;20079;-61
2023/08/30 05:10:57;;;;;;;12.55;9.00;;;;;;;14.96;93.78;100730.91;20417120;28;20058;-61
2023/08/30 05:21:19;;;;;;;15.60;9.88;;;;;;;14.90;93.77;100726.00;20405140;29;20513;-61
2023/08/30 05:31:41;;;;;;;12.23;9.55;;;;;;;14.85;94.00;100717.56;20411500;29;20523;-61
2023/08/30 05:42:03;;;;;;;13.25;9.73;;;;;;;14.85;93.92;100710.56;20409071;29;20052;-61
2023/08/30 05:52:25;;;;;;;13.82;9.73;;;;;;;14.92;94.01;100704.13;20416051;29;20040;-61
2023/08/30 06:02:47;;;;;;;14.75;10.40;;;;;;;14.85;93.76;100702.75;20442476;28;20599;-61
2023/08/30 06:13:08;;;;;;;13.00;9.57;;;;;;;14.85;93.00;100709.75;20441295;28;20131;-62
2023/08/30 06:23:30;;;;;;;14.57;9.88;;;;;;;14.82;93.03;100702.94;20419854;28;20046;-61
2023/08/30 06:33:51;;;;;;;14.07;9.70;;;;;;;14.87;92.12;100695.72;20420592;28;20055;-61
2023/08/30 06:44:13;;;;;;;14.40;10.32;;;;;;;15.04;91.75;100697.47;20431684;28;20045;-61
2023/08/30 06:54:36;;;;;;;14.35;9.88;;;;;;;15.13;90.84;100703.09;20413448;29;20044;-61
2023/08/30 07:04:57;;;;;;;13.75;9.55;;;;;;;15.39;90.68;100698.28;20427253;28;20051;-61
2023/08/30 07:15:19;;;;;;;13.23;9.60;;;;;;;15.61;89.69;100672.81;20424472;28;20478;-61
2023/08/30 07:25:41;;;;;;;16.38;10.18;;;;;;;15.77;88.23;100665.81;20413635;29;20040;-61
2023/08/30 07:36:02;;;;;;;13.75;8.43;;;;;;;16.01;86.63;100685.38;20417011;28;20058;-61
2023/08/30 07:46:25;;;;;;;12.20;8.02;;;;;;;16.17;85.57;100675.78;20422885;28;20039;-61
2023/08/30 07:56:47;;;;;;;9.98;7.60;;;;;;;16.39;84.65;100675.44;20453271;23;20063;-61
2023/08/30 08:07:09;;;;;;;15.52;8.32;;;;;;;16.55;83.03;100677.13;20412044;29;20099;-62
2023/08/30 08:17:30;;;;;;;11.18;7.25;;;;;;;16.75;80.77;100666.38;20407804;28;20066;-62
2023/08/30 08:27:52;;;;;;;12.77;7.63;;;;;;;16.95;80.79;100658.22;20408884;29;20199;-62
2023/08/30 08:38:13;;;;;;;10.50;7.63;;;;;;;17.18;81.16;100658.63;20402827;29;20040;-61
2023/08/30 08:48:40;;;;;;;12.43;7.57;;;;;;;17.42;78.70;100646.66;20407836;29;20048;-62
2023/08/30 08:59:08;;;;;;;8.18;6.18;;;;;;;17.68;78.49;100654.63;20414298;29;20486;-63
2023/08/30 09:09:31;;;;;;;8.73;5.68;;;;;;;17.88;76.85;100662.09;20412299;29;20074;-63
2023/08/30 09:19:52;;;;;;;7.82;5.72;;;;;;;18.20;73.98;100646.97;20391346;29;20043;-62
2023/08/30 09:30:14;;;;;;;9.30;5.70;;;;;;;18.35;73.73;100651.19;20408021;29;20058;-63
2023/08/30 09:40:36;;;;;;;9.60;6.03;;;;;;;18.58;72.04;100636.63;20397214;29;20074;-63
2023/08/30 09:50:59;;;;;;;14.07;6.20;;;;;;;18.77;71.51;100626.59;20399616;29;20048;-63
2023/08/30 10:01:21;;;;;;;12.07;5.65;;;;;;;19.02;71.11;100609.09;20398858;29;20429;-63
2023/08/30 10:11:44;;;;;;;10.70;6.63;;;;;;;19.25;67.57;100611.91;20390701;29;20051;-63
2023/08/30 10:22:14;;;;;;;8.88;5.68;;;;;;;19.33;70.84;100607.00;20388906;29;20051;-63
2023/08/30 10:32:41;;;;;;;8.50;7.03;;;;;;;19.39;70.75;100604.81;20394678;29;20044;-63
2023/08/30 10:43:04;;;;;;;11.38;7.30;;;;;;;19.36;72.98;100601.53;20406488;29;20075;-63
2023/08/30 10:53:29;;;;;;;10.48;6.47;;;;;;;19.12;70.13;100595.34;20403024;29;20158;-62
2023/08/30 11:03:51;;;;;;;12.38;6.72;;;;;;;18.99;72.00;100580.44;20400962;29;20142;-63
2023/08/30 11:14:22;;;;;;;12.20;7.47;;;;;;;18.87;71.10;100581.28;20402681;28;20394;-62
2023/08/30 11:24:48;;;;;;;12.27;7.55;;;;;;;18.82;73.46;100569.44;20400139;29;20123;-63
2023/08/30 11:35:10;;;;;;;14.88;7.82;;;;;;;18.86;73.35;100563.03;20411128;29;20036;-63
2023/08/30 11:45:35;;;;;;;12.98;8.02;;;;;;;18.90;72.34;100560.09;20405474;29;20050;-63
2023/08/30 11:55:57;;;;;;;10.43;7.43;;;;;;;18.92;72.92;100558.19;20401809;29;20044;-63
2023/08/30 12:06:19;;;;;;;10.55;7.43;;;;;;;18.88;72.62;100545.44;20406535;29;20054;-63
2023/08/30 12:16:41;;;;;;;25.75;8.45;;;;;;;18.80;74.09;100542.47;20386232;29;20059;-63
2023/08/30 12:27:03;;;;;;;12.93;8.70;;;;;;;18.76;75.04;100525.28;20384578;29;20046;-63
2023/08/30 12:37:25;;;;;;;13.30;8.60;;;;;;;18.74;74.81;100512.28;20395039;29;20047;-63
2023/08/30 12:47:46;;;;;;;13.73;8.80;;;;;;;18.73;76.40;100509.75;20396658;29;20044;-63
2023/08/30 12:58:08;;;;;;;17.30;11.52;;;;;;;18.49;80.16;100512.28;20388293;29;20044;-63
2023/08/30 13:08:31;;;;;;;19.42;12.75;;;;;;;18.02;83.82;100517.16;20405478;29;20058;-63
2023/08/30 13:18:53;;;;;;;22.55;14.85;;;;;;;17.66;90.18;100519.56;20400911;28;20122;-63
2023/08/30 13:29:15;;;;;;;23.27;15.85;;;;;;;17.52;93.19;100504.75;20405222;28;20396;-63
2023/08/30 13:39:37;;;;;;;20.80;16.30;;;;;;;17.49;94.36;100517.19;20383309;29;20050;-64
2023/08/30 13:49:59;;;;;;;22.92;17.05;;;;;;;17.38;95.45;100504.72;20399238;29;20050;-64
2023/08/30 14:00:21;;;;;;;25.85;18.75;;;;;;;17.23;97.71;100491.78;20398848;29;20088;-64
2023/08/30 14:10:43;;;;;;;29.27;19.52;;;;;;;17.06;97.24;100493.69;20390695;29;20051;-64
2023/08/30 14:21:04;;;;;;;28.25;21.08;;;;;;;16.93;99.31;100498.00;20400709;29;20609;-65
2023/08/30 14:31:26;;;;;;;26.85;20.50;;;;;;;16.87;100.00;100477.44;20403013;29;20389;-65
2023/08/30 14:41:48;;;;;;;19.58;14.95;;;;;;;16.84;97.33;100475.03;20409756;29;20047;-65
2023/08/30 14:52:09;;;;;;;17.08;13.85;;;;;;;16.77;99.08;100471.13;20415213;29;20044;-65
2023/08/30 15:02:31;;;;;;;15.30;12.88;;;;;;;16.76;99.66;100463.34;20401595;28;20038;-64
2023/08/30 15:12:53;;;;;;;17.40;13.25;;;;;;;16.72;99.85;100449.63;20405076;29;20680;-64
2023/08/30 15:23:17;;;;;;;16.02;13.15;;;;;;;16.71;99.69;100445.34;20409271;29;20043;-65
2023/08/30 15:33:39;;;;;;;16.15;12.90;;;;;;;16.75;100.00;100446.84;20418048;28;20256;-65
2023/08/30 15:44:01;;;;;;;14.25;11.52;;;;;;;16.92;99.22;100437.97;20410907;29;20070;-64
2023/08/30 15:54:23;;;;;;;13.75;10.18;;;;;;;16.87;98.65;100419.09;20404533;29;20044;-64
2023/08/30 16:04:44;;;;;;;11.77;10.05;;;;;;;16.99;99.33;100423.56;20406471;28;20044;-64
2023/08/30 16:15:06;;;;;;;12.10;9.60;;;;;;;16.97;96.27;100410.59;20390063;28;20536;-64
2023/08/30 16:25:28;;;;;;;11.75;10.50;;;;;;;17.05;98.28;100408.34;20413168;29;20056;-65
2023/08/30 16:35:50;;;;;;;16.27;9.27;;;;;;;17.09;96.16;100409.81;20404551;28;20043;-64
2023/08/30 16:46:11;;;;;;;10.75;9.65;;;;;;;17.18;96.49;100397.09;20404524;29;20050;-64
2023/08/30 16:56:33;;;;;;;10.02;8.82;;;;;;;17.17;96.00;100398.03;20389469;29;20126;-64
2023/08/30 17:06:59;;;;;;;11.00;9.90;;;;;;;17.12;97.39;100407.94;20404881;29;20079;-64
2023/08/30 17:17:21;;;;;;;12.20;10.18;;;;;;;17.04;95.11;100417.13;20396570;29;20042;-63
2023/08/30 17:27:42;;;;;;;4.88;4.38;;;;;;;16.93;92.41;100430.03;20392599;29;20056;-64
2023/08/30 17:38:04;;;;;;;2.90;2.13;;;;;;;16.61;92.18;100457.28;20401979;29;20565;-64
2023/08/30 17:48:26;;;;;;;1.45;1.35;;;;;;;16.39;92.55;100477.75;20397702;28;20079;-63
2023/08/30 17:58:49;;;;;;;1.50;1.40;;;;;;;16.05;91.67;100491.13;20405419;29;20044;-63
2023/08/30 18:09:11;;;;;;;1.40;1.00;;;;;;;15.73;90.59;100507.78;20420414;29;20047;-64
2023/08/30 18:19:36;;;;;;;1.00;0.90;;;;;;;15.51;90.88;100515.13;20423022;29;20474;-63
2023/08/30 18:29:57;;;;;;;1.08;0.98;;;;;;;15.37;90.75;100518.44;20438399;28;20137;-63
2023/08/30 18:40:21;;;;;;;2.72;1.00;;;;;;;15.31;91.82;100525.78;20401015;29;20044;-63
2023/08/30 18:50:42;;;;;;;0.85;0.85;;;;;;;15.13;91.05;100536.25;20415244;29;20499;-64
2023/08/30 19:01:04;;;;;;;1.50;1.00;;;;;;;15.11;93.21;100538.09;20410592;29;20043;-63
2023/08/30 19:11:26;;;;;;;1.83;1.10;;;;;;;15.06;92.77;100555.75;20409316;29;20039;-64
2023/08/30 19:21:48;;;;;;;1.20;1.10;;;;;;;15.08;94.41;100564.34;20401138;29;20048;-63
2023/08/30 19:32:11;;;;;;;1.65;1.38;;;;;;;15.16;93.79;100565.69;20410916;28;20058;-63
2023/08/30 19:42:33;;;;;;;1.63;1.52;;;;;;;15.10;96.10;100566.84;20403223;29;20040;-62
2023/08/30 19:52:57;;;;;;;2.42;1.90;;;;;;;15.09;96.57;100568.63;20416335;28;20148;-63
2023/08/30 20:03:19;;;;;;;2.25;1.90;;;;;;;15.17;98.11;100583.00;20405560;29;20099;-63
2023/08/30 20:13:42;;;;;;;3.08;2.40;;;;;;;15.17;97.44;100593.44;20425695;29;20045;-62
2023/08/30 20:24:04;;;;;;;3.10;2.60;;;;;;;15.14;98.60;100574.41;20414273;29;20055;-61
2023/08/30 20:34:26;;;;;;;2.97;2.67;;;;;;;15.16;98.20;100576.97;20404640;29;20405;-60
2023/08/30 20:44:47;;;;;;;5.53;2.85;;;;;;;15.03;98.25;100581.13;20420177;29;20055;-62
2023/08/30 20:55:09;;;;;;;3.70;2.83;;;;;;;14.91;98.04;100593.03;20403318;28;20050;-61
2023/08/30 21:05:32;;;;;;;4.28;2.90;;;;;;;14.84;98.91;100602.09;20394616;29;20554;-61
2023/08/30 21:15:53;;;;;;;5.90;2.97;;;;;;;14.81;99.45;100607.47;20402746;29;20746;-61
2023/08/30 21:26:15;;;;;;;3.38;3.08;;;;;;;14.76;98.58;100612.03;20406773;29;20052;-61
2023/08/30 21:36:36;;;;;;;;;;;;;;;14.69;100.00;100610.66;20398648;28;20067;-61
2023/08/30 21:46:58;;;;;;;5.00;3.45;;;;;;;14.71;99.41;100614.03;20405028;29;19926;-62
2023/08/30 21:57:20;;;;;;;4.15;2.97;;;;;;;14.65;99.42;100626.56;20396862;29;20404;-62
2023/08/30 22:07:42;;;;;;;4.00;3.05;;;;;;;14.61;98.35;100620.66;20404641;29;20068;-62
2023/08/30 22:18:04;;;;;;;3.08;2.75;;;;;;;14.56;98.27;100627.81;20397776;29;20055;-62
2023/08/30 22:28:26;;;;;;;5.70;2.83;;;;;;;14.42;98.14;100629.44;20402406;29;20560;-62
2023/08/30 22:38:50;;;;;;;4.32;2.13;;;;;;;14.42;98.23;100632.88;20392918;29;20246;-61
2023/08/30 22:49:13;;;;;;;5.80;2.65;;;;;;;14.34;97.69;100632.41;20410138;29;20054;-62
2023/08/30 22:59:35;;;;;;;4.65;2.83;;;;;;;14.27;97.34;100641.44;20398993;29;20089;-62
2023/08/30 23:09:56;;;;;;;;;;;;;;;14.18;98.02;100631.44;20421615;29;20048;-62
2023/08/30 23:20:18;;;;;;;5.13;2.03;;;;;;;14.09;97.83;100637.06;20408778;29;19930;-62
2023/08/30 23:30:40;;;;;;;6.55;2.30;;;;;;;13.91;97.14;100643.16;20407352;29;21271;-62
2023/08/30 23:41:02;;;;;;;7.28;2.03;;;;;;;13.79;97.90;100654.13;20415152;28;20044;-62
2023/08/30 23:51:24;;;;;;;4.40;1.88;;;;;;;13.74;96.20;100656.06;20410442;29;20613;-61
